• Join FlightAware (Why Join?)
  • Login
  • US Flag 
02:11AM EDT


 

Airport Tracker/Info


-or-


 

Live Flight TrackerFlight Track Log ✈ SWA1287 ✈ 28-Apr-2013 ✈ KOAK - KLAS

Flight Track Log - Related Links

Times and Time Zones

All times are in EDT time to prevent confusion due to time zone crossing. See the SWA1287 flight status page for this flight to view local times or setup timezone preferences in your user account.

Time Position Orientation Groundspeed Altitude Reporting Facility
EDT Latitude Longitude Course Direction KTS MPH feet Rate Location/Type
11:58AM 37.7333 -122.2667 302° West 177 204 1,500  Level Northern Cal TRACON
11:59AM 37.7667 -122.3333 302° West 231 266 3,900 2,520 Climbing Northern Cal TRACON
12:00PM 37.7667 -122.4000 270° West 254 292 6,400 2,880 Climbing Northern Cal TRACON
12:02PM 37.5975 -122.4239 186° South 310 357 12,900 3,060 Climbing Oakland Center
12:03PM 37.4906 -122.4108 174° South 320 368 16,400 2,700 Climbing Oakland Center
12:04PM 37.4342 -122.3183 127° Southeast 358 412 18,500 2,340 Climbing Oakland Center
12:05PM 37.4150 -122.1864 100° East 384 442 21,300 2,400 Climbing Oakland Center
12:06PM 37.3869 -122.0561 105° East 389 448 23,500 2,220 Climbing Oakland Center
12:07PM 37.3569 -121.9178 105° East 407 468 25,900 2,160 Climbing Oakland Center
12:08PM 37.3239 -121.7633 105° East 416 479 27,900 1,800 Climbing Oakland Center
12:09PM 37.2931 -121.6189 105° East 427 491 29,600 1,800 Climbing Oakland Center
12:10PM 37.2606 -121.4719 105° East 436 502 31,600 1,620 Climbing Oakland Center
12:11PM 37.2306 -121.3281 105° East 430 495 33,000 660 Climbing Oakland Center
12:12PM 37.1972 -121.1847 106° East 427 491 33,000  Level Oakland Center
12:13PM 37.1658 -121.0375 105° East 436 502 33,000  Level Oakland Center
12:14PM 37.1333 -120.8922 106° East 435 501 33,000  Level Oakland Center
12:15PM 37.1003 -120.7453 106° East 448 516 33,000  Level Oakland Center
12:16PM 37.0667 -120.6022 106° East 454 522 33,000  Level Oakland Center
12:17PM 37.0447 -120.4242 99° East 449 517 33,000  Level Oakland Center
12:18PM 37.0636 -120.2775 81° East 431 496 33,000  Level Oakland Center
12:19PM 37.0847 -120.1297 80° East 433 498 33,000  Level Oakland Center
12:20PM 37.1044 -119.9806 81° East 435 501 33,000  Level Oakland Center
12:21PM 37.1244 -119.8328 80° East 435 501 33,000  Level Oakland Center
12:22PM 37.1439 -119.6833 81° East 434 499 33,000  Level Oakland Center
12:23PM 37.1636 -119.5344 81° East 434 499 33,000  Level Oakland Center
12:24PM 37.1833 -119.3839 81° East 437 503 33,000  Level Oakland Center
12:25PM 37.2022 -119.2344 81° East 435 501 33,000  Level Oakland Center
12:26PM 37.2206 -119.0842 81° East 435 501 33,000  Level Oakland Center
12:27PM 37.2403 -118.9333 81° East 438 504 33,000  Level Oakland Center
12:28PM 37.2606 -118.7528 82° East 435 501 33,000  Level Oakland Center
12:30PM 37.2800 -118.6014 81° East 438 504 33,000  Level Oakland Center
12:31PM 37.2978 -118.4547 81° East 439 505 33,000  Level Oakland Center
12:32PM 37.3147 -118.3039 82° East 438 504 33,000  Level Oakland Center
12:33PM 37.3331 -118.1528 81° East 439 505 33,000  Level Oakland Center
12:34PM 37.3503 -118.0011 82° East 440 506 33,000  Level Oakland Center
12:35PM 37.3669 -117.8508 82° East 438 504 33,000  Level Oakland Center
12:36PM 37.3850 -117.7006 81° East 436 502 33,000  Level Oakland Center
12:37PM 37.4044 -117.5197 82° East 437 503 33,000  Level Oakland Center
12:38PM 37.4211 -117.3686 82° East 438 504 33,000  Level Oakland Center
12:39PM 37.3775 -117.2342 112° Southeast 448 516 33,000  Level Oakland Center
12:40PM 37.2758 -117.1500 147° Southeast 440 506 33,000  Level Oakland Center
12:40PM 37.2353 -117.1131 144° Southeast 440 506 33,000  Level Los Angeles Center
12:41PM 37.1342 -117.0261 146° Southeast 441 507 33,000  Level Los Angeles Center
12:42PM 37.0725 -116.9753 147° Southeast 442 509 33,000  Level Oakland Center
12:43PM 36.9714 -116.8906 146° Southeast 438 504 33,000  Level Oakland Center
12:43PM 36.9297 -116.8556 146° Southeast 443 510 33,000  Level Los Angeles Center
12:44PM 36.8103 -116.7533 146° Southeast 435 501 33,000 -780 Level Los Angeles Center
12:46PM 36.7289 -116.6436 133° Southeast 434 499 31,300 -2,220 Descending Los Angeles Center
12:47PM 36.6317 -116.5056 131° Southeast 441 507 28,500 -2,520 Descending Los Angeles Center
12:48PM 36.5553 -116.3961 131° Southeast 425 489 26,200 -2,280 Descending Los Angeles Center
12:49PM 36.4767 -116.2844 131° Southeast 405 466 23,800 -2,220 Descending Los Angeles Center
12:50PM 36.3450 -116.1083 133° Southeast 382 440 20,000 -2,220 Descending Los Angeles Center
12:51PM 36.3272 -116.0756 124° Southeast 374 430 19,300 -2,100 Descending Los Angeles Center
12:51PM 36.2833 -116.0189 134° Southeast 371 427 18,100 -1,980 Descending Los Angeles Center
12:52PM 36.2608 -115.9819 127° Southeast 365 420 17,300 -1,920 Descending Los Angeles Center
12:52PM 36.2108 -115.9197 135° Southeast 364 419 16,000 -1,380 Descending Los Angeles Center
12:53PM 36.1933 -115.8806 119° Southeast 356 410 15,900 -120 Descending Los Angeles Center
12:53PM 36.1717 -115.8153 112° Southeast 302 348 15,900 -420 Level Los Angeles Center
12:54PM 36.1633 -115.7856 109° East 291 335 15,500 -1,080 Descending Los Angeles Center
12:55PM 36.1219 -115.7436 141° Southeast 276 318 14,700 -1,260 Descending Los Angeles Center
12:55PM 36.1006 -115.7347 161° South 271 312 14,200 -540 Descending Los Angeles Center
12:56PM 36.0533 -115.6772 135° Southeast 266 306 14,000 -540 Descending Los Angeles Center
12:56PM 36.0472 -115.6161 97° East 270 311 13,400 -720 Descending Los Angeles Center
12:57PM 36.0469 -115.5994 91° East 272 313 13,300 -840 Descending Los Angeles Center
12:58PM 36.0408 -115.5253 96° East 261 300 12,600 -1,020 Descending Los Angeles Center
12:58PM 36.0394 -115.4889 93° East 255 293 12,100 -1,320 Descending Los Angeles Center
12:59PM 36.0339 -115.4425 98° East 250 288 11,300 -1,080 Descending Los Angeles Center
12:59PM 36.0317 -115.3875 93° East 249 287 11,000 -300 Descending Los Angeles Center
01:00PM 36.0278 -115.3542 98° East 249 287 11,000 -600 Level Los Angeles Center
01:00PM 36.0256 -115.3033 93° East 248 285 10,400 -780 Descending Los Angeles Center
01:00PM 36.0228 -115.2814 99° East 245 282 10,300 -720 Descending Los Angeles Center
01:01PM 36.0208 -115.2242 92° East 243 280 9,700 -1,020 Descending Los Angeles Center
01:02PM 36.0158 -115.1531 95° East 227 261 8,500 -1,020 Descending Los Angeles Center
01:03PM 36.0083 -115.0656 96° East 209 241 7,600 -960 Descending Los Angeles Center
01:04PM 36.0061 -114.9983 92° East 209 241 6,500 -780 Descending Los Angeles Center
01:06PM 36.0061 -114.9172 90° East 205 236 6,000 -360 Descending Los Angeles Center
01:06PM 36.0458 -114.9008 18° North 208 239 5,800 -780 Descending Los Angeles Center
01:07PM 36.0742 -114.9494 306° West 196 226 4,500 -960 Descending Los Angeles Center
01:08PM 36.0744 -115.0189 270° West 199 229 3,900 -840 Descending Los Angeles Center
01:10PM 36.0742 -115.0894 270° West 187 215 2,700 -840 Descending Los Angeles Center
01:11PM 36.0739 -115.1428 270° West 154 177 2,000 -720 Descending Los Angeles Center
01:13PM 36.0667 -115.1500 270° West  Level FlightAware Approximate